PWSweather.com
Personal Weather Stations
Station Observations
NAPERVILLE
North Naperville, Naperville, IL 60563

North NapervilleNaperville, IL 60563

Lat: 41.79, Lon: -88.12

Elevation: 771

Station Type:

http://napervilleweather.com

High Low Average
Temperature 82.9°F28.3°C 49.7°F9.8°C 67.0°F19.4°C
Dew Point 65.8°F18.8°C 47.8°F8.8°C 58.5°F14.7°C
Winds 3.0 mph 4.8 kmh Calm Calm 1.0 mph SE1.6 kmh SE
Wind Gusts 9.0 mph14.5 kmh -- 4.0 mph6.4 kmh
Humidity 97% 46% 77%
Pressure 29.95 in1014.2 mb 29.80 in1009.1 mb -
Precipitation 0.58 in14.7 mm - -
Hour Temp Dew Point Humidity Winds Wind Gusts Pressure Precip Precip Rate Daily Precip Total
12:00 AM 53.9°F12.2°C 45.8°F7.7°C 74% 2.0 mph E3.2 kmh E 5.0 mph8.0 kmh 29.89 in1012.2 mb 0.00 in0.0 mm 0.00 in0.0 mm 0.00 in0.0 mm
12:15 AM 52.6°F11.4°C 47.6°F8.7°C 83% Calm Calm 3.0 mph4.8 kmh 29.95 in1014.2 mb 0.09 in2.3 mm 0.36 in9.1 mm 0.09 in2.3 mm
12:30 AM 50.9°F10.5°C 47.5°F8.6°C 88% Calm Calm 1.0 mph1.6 kmh 29.97 in1014.9 mb 0.21 in5.3 mm 0.48 in12.2 mm 0.21 in5.3 mm
12:45 AM 50.2°F10.1°C 47.7°F8.7°C 91% Calm Calm 2.0 mph3.2 kmh 29.95 in1014.2 mb 0.30 in7.6 mm 0.36 in9.1 mm 0.30 in7.6 mm
01:00 AM 50.0°F10.0°C 47.8°F8.8°C 92% Calm Calm -- 29.95 in1014.2 mb 0.33 in8.4 mm 0.04 in1.0 mm 0.33 in8.4 mm
01:15 AM 49.9°F9.9°C 48.0°F8.9°C 93% Calm Calm -- 29.95 in1014.2 mb 0.28 in7.1 mm 0.00 in0.0 mm 0.37 in9.4 mm
01:30 AM 49.8°F9.9°C 47.9°F8.8°C 93% Calm Calm 2.0 mph3.2 kmh 29.94 in1013.9 mb 0.23 in5.8 mm 0.00 in0.0 mm 0.44 in11.2 mm
01:45 AM 49.8°F9.9°C 48.1°F8.9°C 94% Calm Calm 1.0 mph1.6 kmh 29.91 in1012.9 mb 0.16 in4.1 mm 0.00 in0.0 mm 0.46 in11.7 mm
02:00 AM 49.8°F9.9°C 48.1°F8.9°C 94% Calm Calm 1.0 mph1.6 kmh 29.91 in1012.9 mb 0.15 in3.8 mm 0.00 in0.0 mm 0.48 in12.2 mm
02:15 AM 49.7°F9.8°C 48.0°F8.9°C 94% Calm Calm 1.0 mph1.6 kmh 29.92 in1013.2 mb 0.12 in3.0 mm 0.00 in0.0 mm 0.50 in12.7 mm
02:30 AM 49.7°F9.8°C 48.0°F8.9°C 94% 1.0 mph ENE1.6 kmh ENE 3.0 mph4.8 kmh 29.88 in1011.9 mb 0.07 in1.8 mm 0.00 in0.0 mm 0.51 in13.0 mm
02:45 AM 49.8°F9.9°C 48.4°F9.1°C 95% 3.0 mph E4.8 kmh E 7.0 mph11.3 kmh 29.88 in1011.9 mb 0.06 in1.5 mm 0.00 in0.0 mm 0.52 in13.2 mm
03:00 AM 49.8°F9.9°C 48.4°F9.1°C 95% 2.0 mph E3.2 kmh E 5.0 mph8.0 kmh 29.81 in1009.5 mb 0.05 in1.3 mm 0.00 in0.0 mm 0.53 in13.5 mm
03:15 AM 49.9°F9.9°C 48.5°F9.2°C 95% 3.0 mph E4.8 kmh E 7.0 mph11.3 kmh 29.80 in1009.1 mb 0.03 in0.8 mm 0.00 in0.0 mm 0.53 in13.5 mm
03:30 AM 50.1°F10.1°C 48.7°F9.3°C 95% 3.0 mph E4.8 kmh E 9.0 mph14.5 kmh 29.82 in1009.8 mb 0.02 in0.5 mm 0.00 in0.0 mm 0.53 in13.5 mm
03:45 AM 50.3°F10.2°C 49.2°F9.6°C 96% 2.0 mph E3.2 kmh E 6.0 mph9.7 kmh 29.80 in1009.1 mb 0.01 in0.3 mm 0.00 in0.0 mm 0.53 in13.5 mm
04:00 AM 50.4°F10.2°C 49.3°F9.6°C 96% 1.0 mph E1.6 kmh E 3.0 mph4.8 kmh 29.85 in1010.8 mb 0.01 in0.3 mm 0.00 in0.0 mm 0.54 in13.7 mm
04:15 AM 50.4°F10.2°C 49.3°F9.6°C 96% Calm Calm 2.0 mph3.2 kmh 29.84 in1010.5 mb 0.01 in0.3 mm 0.00 in0.0 mm 0.54 in13.7 mm
04:30 AM 50.5°F10.3°C 49.4°F9.7°C 96% 1.0 mph E1.6 kmh E 3.0 mph4.8 kmh 29.84 in1010.5 mb 0.01 in0.3 mm 0.00 in0.0 mm 0.54 in13.7 mm
04:45 AM 50.7°F10.4°C 49.6°F9.8°C 96% 2.0 mph E3.2 kmh E 5.0 mph8.0 kmh 29.84 in1010.5 mb 0.01 in0.3 mm 0.00 in0.0 mm 0.54 in13.7 mm
05:00 AM 51.0°F10.6°C 49.9°F9.9°C 96% 1.0 mph ENE1.6 kmh ENE 2.0 mph3.2 kmh 29.84 in1010.5 mb 0.00 in0.0 mm 0.00 in0.0 mm 0.54 in13.7 mm
05:15 AM 51.2°F10.7°C 50.1°F10.1°C 96% 1.0 mph E1.6 kmh E 3.0 mph4.8 kmh 29.84 in1010.5 mb 0.00 in0.0 mm 0.00 in0.0 mm 0.54 in13.7 mm
05:30 AM 51.4°F10.8°C 50.3°F10.2°C 96% 1.0 mph ENE1.6 kmh ENE 5.0 mph8.0 kmh 29.84 in1010.5 mb 0.00 in0.0 mm 0.00 in0.0 mm 0.54 in13.7 mm
05:45 AM 51.8°F11.0°C 50.7°F10.4°C 96% Calm Calm 2.0 mph3.2 kmh 29.84 in1010.5 mb 0.00 in0.0 mm 0.00 in0.0 mm 0.54 in13.7 mm
06:00 AM 51.9°F11.1°C 50.8°F10.4°C 96% Calm Calm 1.0 mph1.6 kmh 29.84 in1010.5 mb 0.00 in0.0 mm 0.00 in0.0 mm 0.54 in13.7 mm
06:15 AM 52.2°F11.2°C 51.1°F10.6°C 96% Calm Calm 1.0 mph1.6 kmh 29.85 in1010.8 mb 0.00 in0.0 mm 0.00 in0.0 mm 0.54 in13.7 mm
06:30 AM 52.4°F11.3°C 51.3°F10.7°C 96% Calm Calm 1.0 mph1.6 kmh 29.85 in1010.8 mb 0.00 in0.0 mm 0.00 in0.0 mm 0.54 in13.7 mm
06:45 AM 53.0°F11.7°C 51.9°F11.1°C 96% Calm Calm 1.0 mph1.6 kmh 29.85 in1010.8 mb 0.00 in0.0 mm 0.00 in0.0 mm 0.54 in13.7 mm
07:00 AM 53.6°F12.0°C 52.5°F11.4°C 96% Calm Calm 2.0 mph3.2 kmh 29.86 in1011.2 mb 0.00 in0.0 mm 0.00 in0.0 mm 0.54 in13.7 mm
07:15 AM 54.2°F12.3°C 53.1°F11.7°C 96% Calm Calm 2.0 mph3.2 kmh 29.88 in1011.9 mb 0.00 in0.0 mm 0.00 in0.0 mm 0.54 in13.7 mm
07:30 AM 54.7°F12.6°C 53.6°F12.0°C 96% Calm Calm 2.0 mph3.2 kmh 29.88 in1011.9 mb 0.00 in0.0 mm 0.00 in0.0 mm 0.54 in13.7 mm
07:45 AM 55.2°F12.9°C 54.1°F12.3°C 96% Calm Calm 3.0 mph4.8 kmh 29.87 in1011.5 mb 0.00 in0.0 mm 0.00 in0.0 mm 0.54 in13.7 mm
08:00 AM 55.8°F13.2°C 55.0°F12.8°C 97% 1.0 mph NNE1.6 kmh NNE 2.0 mph3.2 kmh 29.87 in1011.5 mb 0.00 in0.0 mm 0.00 in0.0 mm 0.54 in13.7 mm
08:15 AM 56.3°F13.5°C 55.5°F13.1°C 97% 1.0 mph N1.6 kmh N 3.0 mph4.8 kmh 29.86 in1011.2 mb 0.00 in0.0 mm 0.00 in0.0 mm 0.54 in13.7 mm
08:30 AM 57.1°F13.9°C 56.3°F13.5°C 97% 1.0 mph E1.6 kmh E 3.0 mph4.8 kmh 29.85 in1010.8 mb 0.00 in0.0 mm 0.00 in0.0 mm 0.54 in13.7 mm
08:45 AM 57.6°F14.2°C 56.8°F13.8°C 97% 1.0 mph NE1.6 kmh NE 2.0 mph3.2 kmh 29.85 in1010.8 mb 0.00 in0.0 mm 0.00 in0.0 mm 0.54 in13.7 mm
09:00 AM 58.4°F14.7°C 57.6°F14.2°C 97% 1.0 mph ESE1.6 kmh ESE 3.0 mph4.8 kmh 29.86 in1011.2 mb 0.00 in0.0 mm 0.00 in0.0 mm 0.54 in13.7 mm
09:15 AM 59.3°F15.2°C 58.4°F14.7°C 97% 1.0 mph NE1.6 kmh NE 3.0 mph4.8 kmh 29.86 in1011.2 mb 0.00 in0.0 mm 0.00 in0.0 mm 0.54 in13.7 mm
09:30 AM 60.6°F15.9°C 59.7°F15.4°C 97% 1.0 mph E1.6 kmh E 2.0 mph3.2 kmh 29.86 in1011.2 mb 0.00 in0.0 mm 0.00 in0.0 mm 0.54 in13.7 mm
09:45 AM 61.2°F16.2°C 60.3°F15.7°C 97% 1.0 mph SE1.6 kmh SE 3.0 mph4.8 kmh 29.86 in1011.2 mb 0.00 in0.0 mm 0.00 in0.0 mm 0.54 in13.7 mm
10:00 AM 62.7°F17.1°C 61.5°F16.4°C 96% 1.0 mph SSE1.6 kmh SSE 3.0 mph4.8 kmh 29.86 in1011.2 mb 0.00 in0.0 mm 0.00 in0.0 mm 0.54 in13.7 mm
10:15 AM 63.6°F17.6°C 62.1°F16.7°C 95% 1.0 mph SE1.6 kmh SE 4.0 mph6.4 kmh 29.86 in1011.2 mb 0.00 in0.0 mm 0.00 in0.0 mm 0.54 in13.7 mm
10:30 AM 65.8°F18.8°C 62.8°F17.1°C 90% 2.0 mph ESE3.2 kmh ESE 4.0 mph6.4 kmh 29.86 in1011.2 mb 0.00 in0.0 mm 0.00 in0.0 mm 0.54 in13.7 mm
10:45 AM 67.6°F19.8°C 62.9°F17.2°C 85% 2.0 mph ESE3.2 kmh ESE 5.0 mph8.0 kmh 29.86 in1011.2 mb 0.00 in0.0 mm 0.00 in0.0 mm 0.54 in13.7 mm
11:00 AM 68.9°F20.5°C 62.8°F17.1°C 81% 2.0 mph ESE3.2 kmh ESE 7.0 mph11.3 kmh 29.86 in1011.2 mb 0.00 in0.0 mm 0.00 in0.0 mm 0.54 in13.7 mm
11:15 AM 69.5°F20.8°C 62.7°F17.1°C 79% 2.0 mph ESE3.2 kmh ESE 5.0 mph8.0 kmh 29.86 in1011.2 mb 0.00 in0.0 mm 0.00 in0.0 mm 0.54 in13.7 mm
11:30 AM 70.3°F21.3°C 62.4°F16.9°C 76% 2.0 mph SE3.2 kmh SE 6.0 mph9.7 kmh 29.86 in1011.2 mb 0.00 in0.0 mm 0.00 in0.0 mm 0.54 in13.7 mm
11:45 AM 71.5°F21.9°C 63.5°F17.5°C 76% 2.0 mph ESE3.2 kmh ESE 6.0 mph9.7 kmh 29.86 in1011.2 mb 0.00 in0.0 mm 0.00 in0.0 mm 0.54 in13.7 mm
12:00 PM 72.6°F22.6°C 63.4°F17.4°C 73% 2.0 mph SE3.2 kmh SE 5.0 mph8.0 kmh 29.86 in1011.2 mb 0.00 in0.0 mm 0.00 in0.0 mm 0.54 in13.7 mm
12:15 PM 73.2°F22.9°C 63.2°F17.3°C 71% 2.0 mph E3.2 kmh E 9.0 mph14.5 kmh 29.87 in1011.5 mb 0.00 in0.0 mm 0.00 in0.0 mm 0.54 in13.7 mm
12:30 PM 74.1°F23.4°C 64.1°F17.8°C 71% 2.0 mph SE3.2 kmh SE 7.0 mph11.3 kmh 29.86 in1011.2 mb 0.00 in0.0 mm 0.00 in0.0 mm 0.54 in13.7 mm
12:45 PM 75.0°F23.9°C 63.3°F17.4°C 67% 2.0 mph ESE3.2 kmh ESE 7.0 mph11.3 kmh 29.86 in1011.2 mb 0.00 in0.0 mm 0.00 in0.0 mm 0.54 in13.7 mm
01:00 PM 76.0°F24.4°C 62.5°F16.9°C 63% 2.0 mph SE3.2 kmh SE 5.0 mph8.0 kmh 29.86 in1011.2 mb 0.00 in0.0 mm 0.00 in0.0 mm 0.54 in13.7 mm
01:15 PM 76.6°F24.8°C 64.0°F17.8°C 65% 2.0 mph SE3.2 kmh SE 5.0 mph8.0 kmh 29.86 in1011.2 mb 0.00 in0.0 mm 0.00 in0.0 mm 0.54 in13.7 mm
01:30 PM 77.5°F25.3°C 62.0°F16.7°C 59% 2.0 mph SE3.2 kmh SE 5.0 mph8.0 kmh 29.86 in1011.2 mb 0.00 in0.0 mm 0.00 in0.0 mm 0.54 in13.7 mm
01:45 PM 78.5°F25.8°C 62.5°F16.9°C 58% 2.0 mph SSE3.2 kmh SSE 5.0 mph8.0 kmh 29.86 in1011.2 mb 0.00 in0.0 mm 0.00 in0.0 mm 0.54 in13.7 mm
02:00 PM 78.9°F26.1°C 61.9°F16.6°C 56% 2.0 mph S3.2 kmh S 5.0 mph8.0 kmh 29.85 in1010.8 mb 0.00 in0.0 mm 0.00 in0.0 mm 0.54 in13.7 mm
02:15 PM 80.0°F26.7°C 62.4°F16.9°C 55% 1.0 mph SSE1.6 kmh SSE 5.0 mph8.0 kmh 29.85 in1010.8 mb 0.00 in0.0 mm 0.00 in0.0 mm 0.54 in13.7 mm
02:30 PM 80.7°F27.1°C 62.5°F16.9°C 54% 2.0 mph SE3.2 kmh SE 5.0 mph8.0 kmh 29.85 in1010.8 mb 0.00 in0.0 mm 0.00 in0.0 mm 0.54 in13.7 mm
02:45 PM 81.3°F27.4°C 62.0°F16.7°C 52% 2.0 mph SE3.2 kmh SE 7.0 mph11.3 kmh 29.84 in1010.5 mb 0.00 in0.0 mm 0.00 in0.0 mm 0.54 in13.7 mm
03:00 PM 81.4°F27.4°C 61.0°F16.1°C 50% 2.0 mph SSE3.2 kmh SSE 6.0 mph9.7 kmh 29.85 in1010.8 mb 0.00 in0.0 mm 0.00 in0.0 mm 0.54 in13.7 mm
03:15 PM 81.5°F27.5°C 61.6°F16.4°C 51% 2.0 mph SSE3.2 kmh SSE 6.0 mph9.7 kmh 29.84 in1010.5 mb 0.00 in0.0 mm 0.00 in0.0 mm 0.54 in13.7 mm
03:30 PM 82.0°F27.8°C 60.4°F15.8°C 48% 2.0 mph SE3.2 kmh SE 7.0 mph11.3 kmh 29.84 in1010.5 mb 0.00 in0.0 mm 0.00 in0.0 mm 0.54 in13.7 mm
03:45 PM 81.9°F27.7°C 60.9°F16.1°C 49% 3.0 mph SSE4.8 kmh SSE 6.0 mph9.7 kmh 29.84 in1010.5 mb 0.00 in0.0 mm 0.00 in0.0 mm 0.54 in13.7 mm
04:00 PM 82.4°F28.0°C 61.3°F16.3°C 49% 1.0 mph S1.6 kmh S 5.0 mph8.0 kmh 29.84 in1010.5 mb 0.00 in0.0 mm 0.00 in0.0 mm 0.54 in13.7 mm
04:15 PM 82.9°F28.3°C 61.8°F16.6°C 49% 2.0 mph SSE3.2 kmh SSE 7.0 mph11.3 kmh 29.84 in1010.5 mb 0.00 in0.0 mm 0.00 in0.0 mm 0.54 in13.7 mm
04:30 PM 82.7°F28.2°C 59.8°F15.4°C 46% 2.0 mph S3.2 kmh S 7.0 mph11.3 kmh 29.83 in1010.2 mb 0.00 in0.0 mm 0.00 in0.0 mm 0.54 in13.7 mm
04:45 PM 82.4°F28.0°C 59.5°F15.3°C 46% 2.0 mph SE3.2 kmh SE 7.0 mph11.3 kmh 29.84 in1010.5 mb 0.00 in0.0 mm 0.00 in0.0 mm 0.54 in13.7 mm
05:00 PM 82.6°F28.1°C 60.9°F16.1°C 48% 2.0 mph S3.2 kmh S 5.0 mph8.0 kmh 29.84 in1010.5 mb 0.00 in0.0 mm 0.00 in0.0 mm 0.54 in13.7 mm
05:15 PM 82.2°F27.9°C 59.4°F15.2°C 46% 2.0 mph SSE3.2 kmh SSE 5.0 mph8.0 kmh 29.84 in1010.5 mb 0.00 in0.0 mm 0.00 in0.0 mm 0.54 in13.7 mm
05:30 PM 81.5°F27.5°C 60.5°F15.8°C 49% 2.0 mph SE3.2 kmh SE 7.0 mph11.3 kmh 29.84 in1010.5 mb 0.00 in0.0 mm 0.00 in0.0 mm 0.54 in13.7 mm
05:45 PM 80.8°F27.1°C 59.9°F15.5°C 49% 3.0 mph ESE4.8 kmh ESE 6.0 mph9.7 kmh 29.84 in1010.5 mb 0.00 in0.0 mm 0.00 in0.0 mm 0.54 in13.7 mm
06:00 PM 80.3°F26.8°C 60.0°F15.6°C 50% 2.0 mph SE3.2 kmh SE 5.0 mph8.0 kmh 29.84 in1010.5 mb 0.00 in0.0 mm 0.00 in0.0 mm 0.54 in13.7 mm
06:15 PM 79.9°F26.6°C 60.7°F15.9°C 52% 2.0 mph SE3.2 kmh SE 6.0 mph9.7 kmh 29.84 in1010.5 mb 0.00 in0.0 mm 0.00 in0.0 mm 0.54 in13.7 mm
06:30 PM 79.4°F26.3°C 60.2°F15.7°C 52% 2.0 mph SSE3.2 kmh SSE 6.0 mph9.7 kmh 29.84 in1010.5 mb 0.00 in0.0 mm 0.00 in0.0 mm 0.54 in13.7 mm
06:45 PM 79.0°F26.1°C 60.9°F16.1°C 54% 1.0 mph SSE1.6 kmh SSE 7.0 mph11.3 kmh 29.84 in1010.5 mb 0.00 in0.0 mm 0.00 in0.0 mm 0.54 in13.7 mm
07:00 PM 78.5°F25.8°C 61.5°F16.4°C 56% 2.0 mph SE3.2 kmh SE 6.0 mph9.7 kmh 29.84 in1010.5 mb 0.00 in0.0 mm 0.00 in0.0 mm 0.54 in13.7 mm
07:15 PM 77.6°F25.3°C 61.2°F16.2°C 57% 2.0 mph SE3.2 kmh SE 5.0 mph8.0 kmh 29.83 in1010.2 mb 0.00 in0.0 mm 0.00 in0.0 mm 0.54 in13.7 mm
07:30 PM 77.2°F25.1°C 61.8°F16.6°C 59% 2.0 mph SE3.2 kmh SE 3.0 mph4.8 kmh 29.84 in1010.5 mb 0.00 in0.0 mm 0.00 in0.0 mm 0.54 in13.7 mm
07:45 PM 76.9°F24.9°C 61.5°F16.4°C 59% 1.0 mph SE1.6 kmh SE 3.0 mph4.8 kmh 29.84 in1010.5 mb 0.00 in0.0 mm 0.00 in0.0 mm 0.54 in13.7 mm
08:00 PM 76.4°F24.7°C 62.0°F16.7°C 61% 1.0 mph SE1.6 kmh SE 5.0 mph8.0 kmh 29.83 in1010.2 mb 0.00 in0.0 mm 0.00 in0.0 mm 0.54 in13.7 mm
08:15 PM 75.9°F24.4°C 62.4°F16.9°C 63% 1.0 mph S1.6 kmh S 3.0 mph4.8 kmh 29.83 in1010.2 mb 0.00 in0.0 mm 0.00 in0.0 mm 0.54 in13.7 mm
08:30 PM 75.5°F24.2°C 62.0°F16.7°C 63% 2.0 mph SE3.2 kmh SE 7.0 mph11.3 kmh 29.83 in1010.2 mb 0.00 in0.0 mm 0.00 in0.0 mm 0.54 in13.7 mm
08:45 PM 74.8°F23.8°C 62.7°F17.1°C 66% 1.0 mph SE1.6 kmh SE 3.0 mph4.8 kmh 29.83 in1010.2 mb 0.00 in0.0 mm 0.00 in0.0 mm 0.54 in13.7 mm
09:00 PM 74.2°F23.4°C 63.4°F17.4°C 69% 1.0 mph S1.6 kmh S 2.0 mph3.2 kmh 29.83 in1010.2 mb 0.00 in0.0 mm 0.00 in0.0 mm 0.54 in13.7 mm
09:15 PM 74.0°F23.3°C 64.0°F17.8°C 71% 1.0 mph ESE1.6 kmh ESE 2.0 mph3.2 kmh 29.84 in1010.5 mb 0.00 in0.0 mm 0.00 in0.0 mm 0.54 in13.7 mm
09:30 PM 73.7°F23.2°C 64.1°F17.8°C 72% 1.0 mph E1.6 kmh E 2.0 mph3.2 kmh 29.85 in1010.8 mb 0.00 in0.0 mm 0.00 in0.0 mm 0.54 in13.7 mm
09:45 PM 73.4°F23.0°C 64.6°F18.1°C 74% 1.0 mph ESE1.6 kmh ESE 4.0 mph6.4 kmh 29.85 in1010.8 mb 0.00 in0.0 mm 0.00 in0.0 mm 0.54 in13.7 mm
10:00 PM 73.1°F22.8°C 64.3°F17.9°C 74% 2.0 mph SE3.2 kmh SE 5.0 mph8.0 kmh 29.85 in1010.8 mb 0.00 in0.0 mm 0.00 in0.0 mm 0.54 in13.7 mm
10:15 PM 72.9°F22.7°C 64.5°F18.1°C 75% 1.0 mph S1.6 kmh S 3.0 mph4.8 kmh 29.85 in1010.8 mb 0.00 in0.0 mm 0.00 in0.0 mm 0.54 in13.7 mm
10:30 PM 72.7°F22.6°C 64.7°F18.2°C 76% 2.0 mph ESE3.2 kmh ESE 4.0 mph6.4 kmh 29.85 in1010.8 mb 0.00 in0.0 mm 0.00 in0.0 mm 0.54 in13.7 mm
10:45 PM 72.5°F22.5°C 64.5°F18.1°C 76% 1.0 mph SE1.6 kmh SE 5.0 mph8.0 kmh 29.86 in1011.2 mb 0.00 in0.0 mm 0.00 in0.0 mm 0.54 in13.7 mm
11:00 PM 71.6°F22.0°C 65.5°F18.6°C 81% 1.0 mph SE1.6 kmh SE 3.0 mph4.8 kmh 29.87 in1011.5 mb 0.01 in0.3 mm 0.01 in0.3 mm 0.55 in14.0 mm
11:15 PM 70.1°F21.2°C 65.0°F18.3°C 84% 1.0 mph E1.6 kmh E 2.0 mph3.2 kmh 29.89 in1012.2 mb 0.01 in0.3 mm 0.00 in0.0 mm 0.55 in14.0 mm
11:30 PM 69.4°F20.8°C 65.4°F18.6°C 87% Calm Calm 2.0 mph3.2 kmh 29.90 in1012.5 mb 0.02 in0.5 mm 0.04 in1.0 mm 0.56 in14.2 mm
11:45 PM 68.6°F20.3°C 65.2°F18.4°C 89% Calm Calm 1.0 mph1.6 kmh 29.89 in1012.2 mb 0.04 in1.0 mm 0.08 in2.0 mm 0.58 in14.7 mm